createdAt,value
2017-12-21T00:00:44.620Z,18.17
2017-12-21T00:03:12.139Z,17.90
2017-12-21T00:05:39.635Z,18.97
2017-12-21T00:08:07.157Z,16.90
2017-12-21T00:10:34.658Z,17.43
2017-12-21T00:13:02.179Z,17.97
2017-12-21T00:15:30.446Z,16.63
2017-12-21T00:17:57.971Z,16.80
2017-12-21T00:20:25.465Z,17.13
2017-12-21T00:22:52.979Z,18.43
2017-12-21T00:25:20.475Z,18.13
2017-12-21T00:27:47.991Z,15.80
2017-12-21T00:30:15.486Z,18.27
2017-12-21T00:32:43.008Z,18.50
2017-12-21T00:35:10.511Z,17.27
2017-12-21T00:37:38.031Z,18.40
2017-12-21T00:40:05.527Z,19.03
2017-12-21T00:42:33.051Z,18.13
2017-12-21T00:45:00.605Z,20.60
2017-12-21T00:47:28.107Z,19.60
2017-12-21T00:49:56.374Z,18.10
2017-12-21T00:52:23.895Z,17.70
2017-12-21T00:54:51.398Z,18.90
2017-12-21T00:57:19.687Z,18.70
2017-12-21T00:59:47.957Z,19.03
2017-12-21T01:02:16.248Z,18.90
2017-12-21T01:04:43.746Z,18.70
2017-12-21T01:07:11.239Z,18.73
2017-12-21T01:09:39.522Z,17.67
2017-12-21T01:12:07.783Z,17.47
2017-12-21T01:14:35.307Z,19.27
2017-12-21T01:17:02.808Z,17.80
2017-12-21T01:19:31.099Z,20.80
2017-12-21T01:21:59.364Z,17.80
2017-12-21T01:24:27.646Z,17.50
2017-12-21T01:26:55.905Z,17.53
2017-12-21T01:29:23.422Z,17.00
2017-12-21T01:31:50.921Z,18.60
2017-12-21T01:34:18.442Z,17.37
2017-12-21T01:36:45.938Z,16.77
2017-12-21T01:39:13.461Z,17.87
2017-12-21T01:41:40.963Z,18.27
2017-12-21T01:44:09.250Z,17.23
2017-12-21T01:46:37.518Z,16.10
2017-12-21T01:49:05.802Z,19.93
2017-12-21T01:51:34.071Z,17.33
2017-12-21T01:54:02.367Z,16.60
2017-12-21T01:56:29.871Z,17.70
2017-12-21T01:58:57.436Z,16.70
2017-12-21T02:01:24.939Z,15.17
2017-12-21T02:03:52.442Z,15.90
2017-12-21T02:06:19.958Z,16.10
2017-12-21T02:08:47.460Z,15.80
2017-12-21T02:11:14.987Z,14.50
2017-12-21T02:13:42.486Z,14.67
2017-12-21T02:16:10.003Z,13.80
2017-12-21T02:18:37.506Z,13.80
2017-12-21T02:21:05.026Z,14.90
2017-12-21T02:23:32.534Z,14.50
2017-12-21T02:26:00.059Z,15.27
2017-12-21T02:28:27.618Z,13.90
2017-12-21T02:30:55.086Z,15.23
2017-12-21T02:33:22.611Z,14.77
2017-12-21T02:35:50.114Z,16.27
2017-12-21T02:38:17.642Z,13.40
2017-12-21T02:40:45.143Z,14.40
2017-12-21T02:43:13.431Z,16.43
2017-12-21T02:45:41.699Z,15.20
2017-12-21T02:48:09.983Z,13.97
2017-12-21T02:50:38.251Z,14.43
2017-12-21T02:53:06.554Z,13.87
2017-12-21T02:55:34.061Z,13.90
2017-12-21T02:58:01.566Z,15.60
2017-12-21T03:00:29.090Z,14.57
2017-12-21T03:02:56.595Z,12.50
2017-12-21T03:05:24.118Z,14.20
2017-12-21T03:07:52.378Z,14.40
2017-12-21T03:10:19.894Z,12.50
2017-12-21T03:12:47.394Z,14.00
2017-12-21T03:15:14.906Z,13.20
2017-12-21T03:17:42.403Z,13.53
2017-12-21T03:20:09.915Z,14.10
2017-12-21T03:22:37.415Z,13.37
2017-12-21T03:25:04.934Z,13.90
2017-12-21T03:27:32.432Z,14.20
2017-12-21T03:29:59.955Z,14.43
2017-12-21T03:32:27.450Z,12.70
2017-12-21T03:34:54.966Z,12.70
2017-12-21T03:37:22.466Z,11.90
2017-12-21T03:39:49.977Z,11.30
2017-12-21T03:42:17.477Z,10.67
2017-12-21T03:44:44.991Z,10.77
2017-12-21T03:47:12.494Z,12.10
2017-12-21T03:49:40.014Z,11.40
2017-12-21T03:52:07.519Z,11.10
2017-12-21T03:54:35.014Z,11.43
2017-12-21T03:57:02.534Z,11.30
2017-12-21T03:59:30.026Z,11.60
2017-12-21T04:01:58.307Z,11.77
2017-12-21T04:04:25.807Z,10.80
2017-12-21T04:06:53.322Z,11.37
2017-12-21T04:09:20.818Z,11.93
2017-12-21T04:11:48.343Z,11.07
2017-12-21T04:14:15.839Z,11.87
2017-12-21T04:16:43.334Z,10.73
2017-12-21T04:19:11.614Z,11.23
2017-12-21T04:21:39.874Z,11.40
2017-12-21T04:24:07.395Z,10.00
2017-12-21T04:26:34.894Z,10.20
2017-12-21T04:29:03.181Z,11.00
2017-12-21T04:31:31.447Z,10.07
2017-12-21T04:33:59.726Z,11.17
2017-12-21T04:36:27.982Z,9.70
2017-12-21T04:38:55.528Z,10.27
2017-12-21T04:41:23.071Z,9.33
2017-12-21T04:43:50.571Z,10.10
2017-12-21T04:46:18.086Z,9.90
2017-12-21T04:48:45.583Z,9.90
2017-12-21T04:51:13.103Z,10.07
2017-12-21T04:53:40.594Z,11.10
2017-12-21T04:56:08.114Z,9.40
2017-12-21T04:58:35.615Z,9.20
2017-12-21T05:01:03.130Z,9.43
2017-12-21T05:03:30.635Z,9.43
2017-12-21T05:05:58.927Z,10.40
2017-12-21T05:08:27.199Z,10.97
2017-12-21T05:10:55.482Z,8.83
2017-12-21T05:13:23.750Z,9.13
2017-12-21T05:15:52.038Z,10.10
2017-12-21T05:18:19.535Z,10.00
2017-12-21T05:20:47.050Z,9.67
2017-12-21T05:23:14.564Z,9.90
2017-12-21T05:25:42.077Z,10.23
2017-12-21T05:28:09.575Z,9.90
2017-12-21T05:30:37.099Z,10.43
2017-12-21T05:33:04.599Z,9.47
2017-12-21T05:35:32.118Z,9.97
2017-12-21T05:37:59.621Z,10.83
2017-12-21T05:40:27.147Z,9.47
2017-12-21T05:42:54.646Z,9.90
2017-12-21T05:45:22.167Z,9.63
2017-12-21T05:47:49.671Z,9.30
2017-12-21T05:50:17.959Z,8.67
2017-12-21T05:52:46.222Z,10.00
2017-12-21T05:55:14.543Z,10.27
2017-12-21T05:57:42.047Z,9.23
2017-12-21T06:00:09.548Z,9.93
2017-12-21T06:02:37.111Z,9.90
2017-12-21T06:05:04.618Z,10.40
2017-12-21T06:07:32.140Z,9.80
2017-12-21T06:09:59.638Z,10.03
2017-12-21T06:12:27.150Z,9.03
2017-12-21T06:14:54.651Z,9.50
2017-12-21T06:17:22.169Z,9.23
2017-12-21T06:19:49.662Z,8.07
2017-12-21T06:22:17.188Z,7.70
2017-12-21T06:24:44.682Z,8.13
2017-12-21T06:27:12.187Z,8.20
2017-12-21T06:29:39.706Z,7.53
2017-12-21T06:32:07.219Z,7.80
2017-12-21T06:34:34.730Z,8.07
2017-12-21T06:37:03.210Z,8.83
2017-12-21T06:39:31.498Z,8.70
2017-12-21T06:41:59.762Z,7.97
2017-12-21T06:44:28.042Z,7.70
2017-12-21T06:46:56.311Z,7.50
2017-12-21T06:49:24.592Z,6.63
2017-12-21T06:51:52.862Z,8.37
2017-12-21T06:54:21.149Z,8.30
2017-12-21T06:56:49.415Z,7.40
2017-12-21T06:59:17.708Z,7.30
2017-12-21T07:01:45.202Z,7.07
2017-12-21T07:04:12.723Z,7.50
2017-12-21T07:06:40.222Z,7.07
2017-12-21T07:09:07.738Z,7.30
2017-12-21T07:11:36.004Z,7.60
2017-12-21T07:14:04.277Z,6.80
2017-12-21T07:16:32.562Z,6.60
2017-12-21T07:19:00.827Z,6.17
2017-12-21T07:21:29.118Z,7.07
2017-12-21T07:23:56.618Z,6.23
2017-12-21T07:26:24.139Z,5.53
2017-12-21T07:28:51.633Z,5.90
2017-12-21T07:31:19.146Z,5.83
2017-12-21T07:33:47.423Z,6.07
2017-12-21T07:36:14.947Z,6.40
2017-12-21T07:38:42.455Z,6.00
2017-12-21T07:41:09.979Z,5.80
2017-12-21T07:43:38.252Z,5.60
2017-12-21T07:46:05.771Z,4.77
2017-12-21T07:48:33.270Z,4.77
2017-12-21T07:51:00.788Z,4.67
2017-12-21T07:53:28.292Z,4.73
2017-12-21T07:55:56.583Z,4.50
2017-12-21T07:58:24.850Z,4.10
2017-12-21T08:00:53.106Z,4.30
2017-12-21T08:03:20.677Z,3.43
2017-12-21T08:05:48.130Z,4.20
2017-12-21T08:08:15.643Z,3.93
2017-12-21T08:10:43.139Z,4.30
2017-12-21T08:13:10.685Z,3.97
2017-12-21T08:15:38.169Z,3.87
2017-12-21T08:18:06.456Z,4.10
2017-12-21T08:20:34.719Z,4.63
2017-12-21T08:23:03.000Z,4.40
2017-12-21T08:25:31.260Z,5.50
2017-12-21T08:27:58.815Z,4.60
2017-12-21T08:30:26.310Z,4.80
2017-12-21T08:32:53.802Z,4.63
2017-12-21T08:35:21.323Z,3.70
2017-12-21T08:37:48.819Z,3.60
2017-12-21T08:40:16.331Z,3.50
2017-12-21T08:42:44.591Z,3.17
2017-12-21T08:45:12.882Z,2.90
2017-12-21T08:47:40.390Z,2.70
2017-12-21T08:50:07.903Z,2.80
2017-12-21T08:52:35.399Z,2.40
2017-12-21T08:55:02.916Z,2.60
2017-12-21T08:57:30.416Z,2.80
2017-12-21T08:59:57.935Z,2.07
2017-12-21T09:02:25.427Z,1.67
2017-12-21T09:04:52.938Z,2.60
2017-12-21T09:07:21.199Z,1.93
2017-12-21T09:09:48.719Z,1.60
2017-12-21T09:12:16.219Z,3.40
2017-12-21T09:14:44.552Z,3.20
2017-12-21T09:17:12.048Z,1.77
2017-12-21T09:19:39.553Z,4.27
2017-12-21T09:22:07.063Z,4.20
2017-12-21T09:24:34.558Z,2.50
2017-12-21T09:27:02.075Z,2.67
2017-12-21T09:29:29.575Z,2.70
2017-12-21T09:31:57.093Z,2.47
2017-12-21T09:34:24.582Z,2.00
2017-12-21T09:36:52.103Z,2.10
2017-12-21T09:39:19.608Z,2.50
2017-12-21T09:41:47.127Z,2.37
2017-12-21T09:44:14.632Z,2.50
2017-12-21T09:46:42.131Z,2.83
2017-12-21T09:49:09.644Z,2.00
2017-12-21T09:51:37.138Z,2.07
2017-12-21T09:54:04.652Z,1.87
2017-12-21T09:56:32.155Z,2.10
2017-12-21T09:58:59.680Z,2.20
2017-12-21T10:01:27.174Z,2.00
2017-12-21T10:03:54.682Z,2.10
2017-12-21T10:06:22.175Z,2.10
2017-12-21T10:08:49.690Z,2.70
2017-12-21T10:11:17.955Z,2.17
2017-12-21T10:13:46.236Z,1.70
2017-12-21T10:16:14.503Z,1.70
2017-12-21T10:18:42.788Z,1.60
2017-12-21T10:21:11.054Z,1.30
2017-12-21T10:23:39.334Z,1.30
2017-12-21T10:26:07.598Z,1.67
2017-12-21T10:28:35.114Z,1.70
2017-12-21T10:31:02.607Z,1.50
2017-12-21T10:33:30.115Z,1.30
2017-12-21T10:35:57.668Z,1.57
2017-12-21T10:38:25.178Z,1.60
2017-12-21T10:40:52.674Z,1.50
2017-12-21T10:43:20.187Z,1.33
2017-12-21T10:45:47.678Z,1.20
2017-12-21T10:48:15.211Z,1.57
2017-12-21T10:50:42.707Z,1.80
2017-12-21T10:53:10.235Z,1.60
2017-12-21T10:55:37.731Z,2.03
2017-12-21T10:58:05.245Z,4.10
2017-12-21T11:00:32.745Z,4.70
2017-12-21T11:03:00.253Z,3.30
2017-12-21T11:05:28.546Z,2.80
2017-12-21T11:07:56.817Z,4.50
2017-12-21T11:10:24.336Z,3.00
2017-12-21T11:12:51.831Z,4.03
2017-12-21T11:15:19.374Z,2.70
2017-12-21T11:17:46.866Z,3.00
2017-12-21T11:20:15.142Z,3.03
2017-12-21T11:22:43.399Z,2.27
2017-12-21T11:25:10.919Z,1.67
2017-12-21T11:27:38.410Z,1.47
2017-12-21T11:30:05.934Z,2.10
2017-12-21T11:32:33.434Z,1.97
2017-12-21T11:35:00.951Z,1.80
2017-12-21T11:37:28.447Z,1.70
2017-12-21T11:39:55.959Z,3.70
2017-12-21T11:42:23.453Z,1.90
2017-12-21T11:44:50.970Z,2.07
2017-12-21T11:47:18.462Z,2.07
2017-12-21T11:49:45.950Z,2.00
2017-12-21T11:52:14.232Z,3.30
2017-12-21T11:54:42.496Z,3.03
2017-12-21T11:57:10.777Z,1.70
2017-12-21T11:59:39.040Z,2.10
2017-12-21T12:02:06.558Z,3.10
2017-12-21T12:04:34.054Z,1.63
2017-12-21T12:07:01.566Z,1.83
2017-12-21T12:09:29.071Z,1.80
2017-12-21T12:11:56.578Z,1.30
2017-12-21T12:14:24.067Z,1.70
2017-12-21T12:16:51.579Z,2.40
2017-12-21T12:19:19.075Z,1.67
2017-12-21T12:21:46.595Z,1.60
2017-12-21T12:24:14.093Z,1.47
2017-12-21T12:26:41.610Z,2.07
2017-12-21T12:29:09.106Z,2.17
2017-12-21T12:31:36.622Z,2.60
2017-12-21T12:34:04.118Z,5.70
2017-12-21T12:36:31.619Z,3.20
2017-12-21T12:38:59.958Z,2.60
2017-12-21T12:41:27.431Z,3.10
2017-12-21T12:43:54.947Z,4.03
2017-12-21T12:46:22.443Z,3.77
2017-12-21T12:48:49.955Z,2.20
2017-12-21T12:51:17.446Z,2.30
2017-12-21T12:53:44.958Z,2.27
2017-12-21T12:56:12.454Z,2.63
2017-12-21T12:58:39.972Z,2.80
2017-12-21T13:01:07.475Z,2.90
2017-12-21T13:03:34.990Z,2.27
2017-12-21T13:06:02.491Z,2.40
2017-12-21T13:08:30.012Z,2.10
2017-12-21T13:10:57.507Z,2.10
2017-12-21T13:13:25.048Z,1.90
2017-12-21T13:15:52.603Z,2.37
2017-12-21T13:20:54.647Z,1.90
2017-12-21T13:23:22.934Z,2.30
2017-12-21T13:25:51.186Z,1.90
2017-12-21T13:28:18.699Z,2.20
2017-12-21T13:30:46.200Z,6.47
2017-12-21T13:33:13.720Z,4.33
2017-12-21T13:35:41.219Z,5.37
2017-12-21T13:38:08.734Z,3.37
2017-12-21T13:40:36.250Z,5.20
2017-12-21T13:43:04.523Z,4.80
2017-12-21T13:45:32.783Z,4.37
2017-12-21T13:48:01.071Z,2.40
2017-12-21T13:50:29.334Z,1.87
2017-12-21T13:52:56.854Z,2.00
2017-12-21T13:55:24.347Z,1.97
2017-12-21T13:57:51.865Z,9.00
2017-12-21T14:00:19.360Z,3.17
2017-12-21T14:02:46.875Z,9.67
2017-12-21T14:05:14.374Z,5.33
2017-12-21T14:07:41.891Z,3.50
2017-12-21T14:10:09.391Z,6.80
2017-12-21T14:12:36.891Z,8.03
2017-12-21T14:15:04.402Z,3.57
2017-12-21T14:17:31.894Z,2.63
2017-12-21T14:20:00.171Z,3.43
2017-12-21T14:22:27.682Z,3.47
2017-12-21T14:24:55.211Z,3.70
2017-12-21T14:27:22.715Z,2.97
2017-12-21T14:29:50.231Z,3.70
2017-12-21T14:32:17.737Z,2.90
2017-12-21T14:34:45.256Z,4.57
2017-12-21T14:37:12.746Z,4.17
2017-12-21T14:39:40.264Z,6.07
2017-12-21T14:42:07.760Z,6.63
2017-12-21T14:44:35.312Z,5.87
2017-12-21T14:47:02.796Z,4.13
2017-12-21T14:49:31.075Z,3.13
2017-12-21T14:51:59.340Z,3.30
2017-12-21T14:54:27.631Z,37.00
2017-12-21T14:56:55.898Z,9.77
2017-12-21T14:59:24.192Z,9.23
2017-12-21T15:01:52.454Z,25.10
2017-12-21T15:04:20.742Z,7.40
2017-12-21T15:06:48.239Z,8.53
2017-12-21T15:09:15.760Z,4.17
2017-12-21T15:11:43.258Z,3.77
2017-12-21T15:14:10.751Z,3.67
2017-12-21T15:16:38.271Z,3.40
2017-12-21T15:19:05.762Z,2.87
2017-12-21T15:21:33.279Z,3.17
2017-12-21T15:24:00.775Z,5.50
2017-12-21T15:26:28.292Z,5.10
2017-12-21T15:28:55.791Z,4.60
2017-12-21T15:31:23.311Z,3.70
2017-12-21T15:33:50.812Z,4.13
2017-12-21T15:36:18.331Z,3.20
2017-12-21T15:38:45.845Z,3.07
2017-12-21T15:41:14.127Z,3.80
2017-12-21T15:43:42.391Z,3.63
2017-12-21T15:46:10.674Z,2.93
2017-12-21T15:48:38.938Z,3.10
2017-12-21T15:51:07.208Z,3.50
2017-12-21T15:53:34.721Z,3.20
2017-12-21T15:56:02.216Z,2.37
2017-12-21T15:58:29.730Z,3.07
2017-12-21T16:00:57.222Z,2.73
2017-12-21T16:03:24.803Z,2.53
2017-12-21T16:05:52.284Z,3.43
2017-12-21T16:08:19.802Z,3.17
2017-12-21T16:10:47.298Z,3.00
2017-12-21T16:13:14.819Z,3.20
2017-12-21T16:15:42.315Z,3.43
2017-12-21T16:18:09.842Z,2.57
2017-12-21T16:20:37.339Z,3.17
2017-12-21T16:23:04.854Z,3.63
2017-12-21T16:25:32.364Z,3.30
2017-12-21T16:28:00.711Z,4.00
2017-12-21T16:30:29.007Z,3.97
2017-12-21T16:32:56.506Z,4.07
2017-12-21T16:35:24.019Z,3.63
2017-12-21T16:37:51.515Z,5.50
2017-12-21T16:40:19.039Z,9.23
2017-12-21T16:42:46.543Z,4.80
2017-12-21T16:45:14.058Z,6.20
2017-12-21T16:47:41.560Z,9.40
2017-12-21T16:50:09.088Z,9.00
2017-12-21T16:52:36.594Z,9.17
2017-12-21T16:55:04.096Z,8.10
2017-12-21T16:57:31.615Z,8.40
2017-12-21T16:59:59.115Z,7.07
2017-12-21T17:02:26.640Z,9.10
2017-12-21T17:04:54.904Z,8.40
2017-12-21T17:07:22.427Z,11.00
2017-12-21T17:09:49.932Z,11.97
2017-12-21T17:12:18.221Z,9.17
2017-12-21T17:14:45.717Z,7.63
2017-12-21T17:17:13.235Z,7.80
2017-12-21T17:19:41.507Z,6.93
2017-12-21T17:22:09.796Z,8.10
2017-12-21T17:24:37.315Z,6.57
2017-12-21T17:27:04.815Z,5.50
2017-12-21T17:29:32.331Z,5.87
2017-12-21T17:31:59.828Z,5.70
2017-12-21T17:34:27.351Z,5.63
2017-12-21T17:36:54.846Z,5.93
2017-12-21T17:39:22.367Z,5.77
2017-12-21T17:41:49.871Z,6.87
2017-12-21T17:44:17.395Z,6.60
2017-12-21T17:46:45.705Z,5.47
2017-12-21T17:49:14.151Z,5.50
2017-12-21T17:51:42.423Z,5.30
2017-12-21T17:54:10.687Z,6.23
2017-12-21T17:56:38.212Z,6.13
2017-12-21T17:59:05.760Z,5.47
2017-12-21T18:01:33.283Z,4.63
2017-12-21T18:04:01.538Z,4.07
2017-12-21T18:06:29.053Z,4.60
2017-12-21T18:11:31.141Z,5.27
2017-12-21T18:13:58.680Z,4.57
2017-12-21T18:16:26.943Z,8.60
2017-12-21T18:18:55.217Z,7.43
2017-12-21T18:21:23.501Z,5.30
2017-12-21T18:23:51.037Z,7.00
2017-12-21T18:26:19.369Z,7.30
2017-12-21T18:28:46.871Z,4.27
2017-12-21T18:31:15.202Z,5.73
2017-12-21T18:33:42.756Z,5.87
2017-12-21T18:36:10.375Z,12.03
2017-12-21T18:38:37.890Z,6.20
2017-12-21T18:41:05.467Z,6.60
2017-12-21T18:43:33.010Z,4.60
2017-12-21T18:46:00.570Z,19.40
2017-12-21T18:48:28.112Z,11.80
2017-12-21T18:50:55.634Z,15.50
2017-12-21T18:53:23.950Z,10.50
2017-12-21T18:55:51.521Z,5.50
2017-12-21T18:58:19.019Z,15.17
2017-12-21T19:00:47.306Z,17.13
2017-12-21T19:03:15.612Z,4.30
2017-12-21T19:05:43.130Z,4.63
2017-12-21T19:08:11.394Z,4.83
2017-12-21T19:10:38.916Z,4.90
2017-12-21T19:13:06.474Z,12.90
2017-12-21T19:15:34.022Z,8.57
2017-12-21T19:18:01.589Z,6.63
2017-12-21T19:20:29.086Z,5.30
2017-12-21T19:22:56.654Z,5.90
2017-12-21T19:25:24.923Z,5.23
2017-12-21T19:27:52.489Z,6.20
2017-12-21T19:30:20.806Z,7.70
2017-12-21T19:32:48.377Z,8.20
2017-12-21T19:35:15.922Z,8.43
2017-12-21T19:37:43.459Z,8.00
2017-12-21T19:40:11.790Z,6.70
2017-12-21T19:42:39.290Z,7.93
2017-12-21T19:45:07.604Z,6.20
2017-12-21T19:47:35.157Z,6.93
2017-12-21T19:50:02.706Z,6.00
2017-12-21T19:52:30.246Z,6.40
2017-12-21T19:54:58.560Z,5.57
2017-12-21T19:57:26.059Z,5.83
2017-12-21T19:59:53.610Z,6.80
2017-12-21T20:02:21.174Z,4.87
2017-12-21T20:04:48.662Z,4.70
2017-12-21T20:07:16.187Z,6.10
2017-12-21T20:09:43.734Z,5.00
2017-12-21T20:12:11.299Z,4.90
2017-12-21T20:14:38.785Z,4.63
2017-12-21T20:17:07.081Z,5.43
2017-12-21T20:19:34.694Z,4.80
2017-12-21T20:22:02.282Z,5.30
2017-12-21T20:24:30.625Z,5.10
2017-12-21T20:26:58.315Z,4.40
2017-12-21T20:29:25.901Z,11.93
2017-12-21T20:31:53.458Z,13.63
2017-12-21T20:34:21.138Z,8.23
2017-12-21T20:36:48.751Z,6.10
2017-12-21T20:39:17.134Z,7.20
2017-12-21T20:41:45.473Z,6.93
2017-12-21T20:44:13.066Z,7.67
2017-12-21T20:46:41.373Z,7.03
2017-12-21T20:49:08.946Z,5.77
2017-12-21T20:51:36.493Z,5.97
2017-12-21T20:54:04.072Z,5.40
2017-12-21T20:56:31.630Z,6.40
2017-12-21T20:58:59.263Z,5.43
2017-12-21T21:01:26.843Z,7.07
2017-12-21T21:03:54.412Z,6.20
2017-12-21T21:06:21.982Z,5.90
2017-12-21T21:08:49.531Z,7.63
2017-12-21T21:11:17.095Z,6.30
2017-12-21T21:13:44.589Z,7.03
2017-12-21T21:16:12.102Z,11.27
2017-12-21T21:18:39.655Z,9.30
2017-12-21T21:21:07.237Z,8.80
2017-12-21T21:23:34.731Z,8.73
2017-12-21T21:26:03.048Z,7.93
2017-12-21T21:28:30.623Z,6.53
2017-12-21T21:30:58.171Z,8.10
2017-12-21T21:33:25.751Z,11.17
2017-12-21T21:35:53.298Z,6.73
2017-12-21T21:38:20.862Z,6.73
2017-12-21T21:40:48.402Z,6.50
2017-12-21T21:43:15.951Z,7.23
2017-12-21T21:45:43.500Z,7.37
2017-12-21T21:48:11.051Z,6.00
2017-12-21T21:50:39.322Z,6.37
2017-12-21T21:53:07.635Z,6.50
2017-12-21T21:55:35.199Z,6.97
2017-12-21T21:58:02.778Z,7.00
2017-12-21T22:00:30.351Z,7.40
2017-12-21T22:02:57.898Z,8.37
2017-12-21T22:05:25.462Z,7.90
2017-12-21T22:07:53.013Z,6.43
2017-12-21T22:10:20.586Z,6.13
2017-12-21T22:12:48.150Z,6.80
2017-12-21T22:15:15.718Z,6.17
2017-12-21T22:17:44.034Z,6.10
2017-12-21T22:20:11.628Z,5.67
2017-12-21T22:22:39.144Z,5.73
2017-12-21T22:25:06.699Z,5.73
2017-12-21T22:27:34.256Z,5.37
2017-12-21T22:30:02.575Z,4.83
2017-12-21T22:32:30.133Z,5.17
2017-12-21T22:34:57.671Z,5.90
2017-12-21T22:37:25.922Z,4.87
2017-12-21T22:39:54.235Z,5.27
2017-12-21T22:42:21.803Z,5.80
2017-12-21T22:44:49.347Z,5.97
2017-12-21T22:47:16.900Z,5.07
2017-12-21T22:49:44.441Z,5.00
2017-12-21T22:52:11.988Z,5.07
2017-12-21T22:54:40.288Z,5.10
2017-12-21T22:57:07.840Z,5.17
2017-12-21T22:59:35.387Z,6.53
2017-12-21T23:02:02.956Z,5.87
2017-12-21T23:04:30.517Z,5.00
2017-12-21T23:06:58.066Z,5.20
2017-12-21T23:09:26.374Z,4.77
2017-12-21T23:11:53.925Z,4.50
2017-12-21T23:14:21.456Z,5.20
2017-12-21T23:16:49.782Z,4.57
2017-12-21T23:19:17.325Z,5.70
2017-12-21T23:21:44.881Z,5.83
2017-12-21T23:24:12.419Z,4.50
2017-12-21T23:26:39.935Z,4.50
2017-12-21T23:29:07.427Z,4.97
2017-12-21T23:31:34.998Z,4.47
2017-12-21T23:34:02.541Z,4.70
2017-12-21T23:36:30.868Z,4.30
2017-12-21T23:38:58.383Z,4.53
2017-12-21T23:41:26.638Z,4.90
2017-12-21T23:43:54.209Z,5.00
2017-12-21T23:46:22.510Z,4.73
2017-12-21T23:48:50.065Z,5.30
2017-12-21T23:51:17.554Z,4.97
2017-12-21T23:53:45.062Z,4.10
2017-12-21T23:56:13.319Z,4.63
2017-12-21T23:58:40.830Z,5.20
